sensor_id;sensor_type;location;lat;lon;timestamp;temperature;humidity
22706;DHT22;11520;51.198;4.468;2023-03-24T00:01:22;13.00;99.90
22706;DHT22;11520;51.198;4.468;2023-03-24T00:03:48;13.10;99.90
22706;DHT22;11520;51.198;4.468;2023-03-24T00:06:16;13.10;99.90
22706;DHT22;11520;51.198;4.468;2023-03-24T00:08:43;13.10;99.90
22706;DHT22;11520;51.198;4.468;2023-03-24T00:11:12;13.10;99.90
22706;DHT22;11520;51.198;4.468;2023-03-24T00:13:39;13.10;99.90
22706;DHT22;11520;51.198;4.468;2023-03-24T00:16:10;13.20;99.90
22706;DHT22;11520;51.198;4.468;2023-03-24T00:18:38;13.10;99.90
22706;DHT22;11520;51.198;4.468;2023-03-24T00:21:06;13.20;99.90
22706;DHT22;11520;51.198;4.468;2023-03-24T00:23:32;13.10;99.90
22706;DHT22;11520;51.198;4.468;2023-03-24T00:26:07;13.10;99.90
22706;DHT22;11520;51.198;4.468;2023-03-24T00:28:35;13.20;99.90
22706;DHT22;11520;51.198;4.468;2023-03-24T00:31:02;13.10;99.90
22706;DHT22;11520;51.198;4.468;2023-03-24T00:33:30;13.10;99.90
22706;DHT22;11520;51.198;4.468;2023-03-24T00:36:07;13.20;99.90
22706;DHT22;11520;51.198;4.468;2023-03-24T00:38:36;13.10;99.90
22706;DHT22;11520;51.198;4.468;2023-03-24T00:41:04;13.10;99.90
22706;DHT22;11520;51.198;4.468;2023-03-24T00:43:30;13.10;99.90
22706;DHT22;11520;51.198;4.468;2023-03-24T00:46:00;13.00;99.90
22706;DHT22;11520;51.198;4.468;2023-03-24T00:48:28;13.00;99.90
22706;DHT22;11520;51.198;4.468;2023-03-24T00:50:55;13.00;99.90
22706;DHT22;11520;51.198;4.468;2023-03-24T00:53:22;13.00;99.90
22706;DHT22;11520;51.198;4.468;2023-03-24T00:55:50;13.00;99.90
22706;DHT22;11520;51.198;4.468;2023-03-24T00:58:18;13.00;99.90
22706;DHT22;11520;51.198;4.468;2023-03-24T01:00:55;13.10;99.90
22706;DHT22;11520;51.198;4.468;2023-03-24T01:03:22;13.10;99.90
22706;DHT22;11520;51.198;4.468;2023-03-24T01:05:59;13.10;99.90
22706;DHT22;11520;51.198;4.468;2023-03-24T01:08:26;13.10;99.90
22706;DHT22;11520;51.198;4.468;2023-03-24T01:10:53;13.10;99.90
22706;DHT22;11520;51.198;4.468;2023-03-24T01:13:21;13.10;99.90
22706;DHT22;11520;51.198;4.468;2023-03-24T01:15:49;13.10;99.90
22706;DHT22;11520;51.198;4.468;2023-03-24T01:18:15;13.20;99.90
22706;DHT22;11520;51.198;4.468;2023-03-24T01:20:44;13.20;99.90
22706;DHT22;11520;51.198;4.468;2023-03-24T01:23:12;13.20;99.90
22706;DHT22;11520;51.198;4.468;2023-03-24T01:25:39;13.20;99.90
22706;DHT22;11520;51.198;4.468;2023-03-24T01:28:07;13.30;99.90
22706;DHT22;11520;51.198;4.468;2023-03-24T01:30:33;13.30;99.90
22706;DHT22;11520;51.198;4.468;2023-03-24T01:32:59;13.20;99.90
22706;DHT22;11520;51.198;4.468;2023-03-24T01:35:27;13.10;99.90
22706;DHT22;11520;51.198;4.468;2023-03-24T01:37:54;13.10;99.90
22706;DHT22;11520;51.198;4.468;2023-03-24T01:40:23;13.10;99.90
22706;DHT22;11520;51.198;4.468;2023-03-24T01:42:49;13.10;99.90
22706;DHT22;11520;51.198;4.468;2023-03-24T01:51:20;13.10;99.90
22706;DHT22;11520;51.198;4.468;2023-03-24T01:56:49;13.10;99.90
22706;DHT22;11520;51.198;4.468;2023-03-24T01:59:22;13.00;99.90
22706;DHT22;11520;51.198;4.468;2023-03-24T02:01:50;13.10;99.90
22706;DHT22;11520;51.198;4.468;2023-03-24T02:04:19;13.00;99.90
22706;DHT22;11520;51.198;4.468;2023-03-24T02:06:46;13.10;99.90
22706;DHT22;11520;51.198;4.468;2023-03-24T02:09:14;13.00;99.90
22706;DHT22;11520;51.198;4.468;2023-03-24T02:11:41;13.00;99.90
22706;DHT22;11520;51.198;4.468;2023-03-24T02:14:08;13.00;99.90
22706;DHT22;11520;51.198;4.468;2023-03-24T02:16:55;13.00;99.90
22706;DHT22;11520;51.198;4.468;2023-03-24T02:47:13;12.00;99.90
22706;DHT22;11520;51.198;4.468;2023-03-24T02:57:43;11.90;99.90
22706;DHT22;11520;51.198;4.468;2023-03-24T03:00:23;11.90;99.90
22706;DHT22;11520;51.198;4.468;2023-03-24T03:02:57;11.80;99.90
22706;DHT22;11520;51.198;4.468;2023-03-24T03:05:35;11.80;99.90
22706;DHT22;11520;51.198;4.468;2023-03-24T03:08:05;11.80;99.90
22706;DHT22;11520;51.198;4.468;2023-03-24T03:10:38;11.80;99.90
22706;DHT22;11520;51.198;4.468;2023-03-24T03:13:10;11.70;99.90
22706;DHT22;11520;51.198;4.468;2023-03-24T03:15:42;11.70;99.90
22706;DHT22;11520;51.198;4.468;2023-03-24T03:18:19;11.70;99.90
22706;DHT22;11520;51.198;4.468;2023-03-24T03:20:51;11.60;99.90
22706;DHT22;11520;51.198;4.468;2023-03-24T03:23:24;11.60;99.90
22706;DHT22;11520;51.198;4.468;2023-03-24T03:25:56;11.70;99.90
22706;DHT22;11520;51.198;4.468;2023-03-24T03:28:28;11.60;99.90
22706;DHT22;11520;51.198;4.468;2023-03-24T03:30:58;11.60;99.90
22706;DHT22;11520;51.198;4.468;2023-03-24T03:33:32;11.60;99.90
22706;DHT22;11520;51.198;4.468;2023-03-24T03:36:27;11.60;99.90
22706;DHT22;11520;51.198;4.468;2023-03-24T03:39:17;11.60;99.90
22706;DHT22;11520;51.198;4.468;2023-03-24T03:41:45;11.50;99.90
22706;DHT22;11520;51.198;4.468;2023-03-24T03:44:11;11.60;99.90
22706;DHT22;11520;51.198;4.468;2023-03-24T03:46:38;11.60;99.90
22706;DHT22;11520;51.198;4.468;2023-03-24T03:49:05;11.60;99.90
22706;DHT22;11520;51.198;4.468;2023-03-24T03:51:32;11.70;99.90
22706;DHT22;11520;51.198;4.468;2023-03-24T03:54:02;11.60;99.90
22706;DHT22;11520;51.198;4.468;2023-03-24T03:56:33;11.70;99.90
22706;DHT22;11520;51.198;4.468;2023-03-24T03:58:59;11.60;99.90
22706;DHT22;11520;51.198;4.468;2023-03-24T04:01:28;11.60;99.90
22706;DHT22;11520;51.198;4.468;2023-03-24T04:09:51;11.50;99.90
22706;DHT22;11520;51.198;4.468;2023-03-24T04:18:13;11.50;99.90
22706;DHT22;11520;51.198;4.468;2023-03-24T04:21:11;11.50;99.90
22706;DHT22;11520;51.198;4.468;2023-03-24T04:29:31;11.40;99.90
22706;DHT22;11520;51.198;4.468;2023-03-24T04:32:00;11.50;99.90
22706;DHT22;11520;51.198;4.468;2023-03-24T04:34:43;11.50;99.90
22706;DHT22;11520;51.198;4.468;2023-03-24T04:37:13;11.40;99.90
22706;DHT22;11520;51.198;4.468;2023-03-24T04:39:48;11.30;99.90
22706;DHT22;11520;51.198;4.468;2023-03-24T04:42:24;11.20;99.90
22706;DHT22;11520;51.198;4.468;2023-03-24T04:44:52;11.10;99.90
22706;DHT22;11520;51.198;4.468;2023-03-24T04:47:24;11.10;99.90
22706;DHT22;11520;51.198;4.468;2023-03-24T04:49:57;11.00;99.90
22706;DHT22;11520;51.198;4.468;2023-03-24T04:52:24;10.90;99.90
22706;DHT22;11520;51.198;4.468;2023-03-24T04:54:52;10.90;99.90
22706;DHT22;11520;51.198;4.468;2023-03-24T04:57:18;11.00;99.90
22706;DHT22;11520;51.198;4.468;2023-03-24T04:59:43;11.00;99.90
22706;DHT22;11520;51.198;4.468;2023-03-24T05:02:09;11.00;99.90
22706;DHT22;11520;51.198;4.468;2023-03-24T05:04:36;11.10;99.90
22706;DHT22;11520;51.198;4.468;2023-03-24T05:07:02;11.10;99.90
22706;DHT22;11520;51.198;4.468;2023-03-24T05:09:28;11.20;99.90
22706;DHT22;11520;51.198;4.468;2023-03-24T05:11:56;11.10;99.90
22706;DHT22;11520;51.198;4.468;2023-03-24T05:14:22;11.10;99.90
22706;DHT22;11520;51.198;4.468;2023-03-24T05:16:47;11.10;99.90
22706;DHT22;11520;51.198;4.468;2023-03-24T05:19:13;11.00;99.90
22706;DHT22;11520;51.198;4.468;2023-03-24T05:21:41;10.90;99.90
22706;DHT22;11520;51.198;4.468;2023-03-24T05:24:07;10.80;99.90
22706;DHT22;11520;51.198;4.468;2023-03-24T05:26:33;10.80;99.90
22706;DHT22;11520;51.198;4.468;2023-03-24T05:28:59;10.80;99.90
22706;DHT22;11520;51.198;4.468;2023-03-24T05:31:24;10.70;99.90
22706;DHT22;11520;51.198;4.468;2023-03-24T05:33:50;10.70;99.90
22706;DHT22;11520;51.198;4.468;2023-03-24T05:36:16;10.60;99.90
22706;DHT22;11520;51.198;4.468;2023-03-24T05:38:42;10.60;99.90
22706;DHT22;11520;51.198;4.468;2023-03-24T05:41:08;10.60;99.90
22706;DHT22;11520;51.198;4.468;2023-03-24T05:43:33;10.50;99.90
22706;DHT22;11520;51.198;4.468;2023-03-24T05:46:01;10.50;99.90
22706;DHT22;11520;51.198;4.468;2023-03-24T05:48:27;10.50;99.90
22706;DHT22;11520;51.198;4.468;2023-03-24T05:50:53;10.50;99.90
22706;DHT22;11520;51.198;4.468;2023-03-24T05:53:19;10.50;99.90
22706;DHT22;11520;51.198;4.468;2023-03-24T05:55:45;10.50;99.90
22706;DHT22;11520;51.198;4.468;2023-03-24T05:58:11;10.50;99.90
22706;DHT22;11520;51.198;4.468;2023-03-24T06:00:37;10.50;99.90
22706;DHT22;11520;51.198;4.468;2023-03-24T06:03:04;10.60;99.90
22706;DHT22;11520;51.198;4.468;2023-03-24T06:05:30;10.60;99.90
22706;DHT22;11520;51.198;4.468;2023-03-24T06:07:57;10.60;99.90
22706;DHT22;11520;51.198;4.468;2023-03-24T06:10:28;10.60;99.90
22706;DHT22;11520;51.198;4.468;2023-03-24T06:12:55;10.60;99.90
22706;DHT22;11520;51.198;4.468;2023-03-24T06:15:23;10.60;99.90
22706;DHT22;11520;51.198;4.468;2023-03-24T06:17:53;10.60;99.90
22706;DHT22;11520;51.198;4.468;2023-03-24T06:20:20;10.60;99.90
22706;DHT22;11520;51.198;4.468;2023-03-24T06:22:46;10.60;99.90
22706;DHT22;11520;51.198;4.468;2023-03-24T06:25:15;10.60;99.90
22706;DHT22;11520;51.198;4.468;2023-03-24T06:27:44;10.70;99.90
22706;DHT22;11520;51.198;4.468;2023-03-24T06:30:20;10.80;99.90
22706;DHT22;11520;51.198;4.468;2023-03-24T06:32:46;11.00;99.90
22706;DHT22;11520;51.198;4.468;2023-03-24T06:35:13;11.10;99.90
22706;DHT22;11520;51.198;4.468;2023-03-24T06:37:40;11.20;99.90
22706;DHT22;11520;51.198;4.468;2023-03-24T06:40:06;11.30;99.90
22706;DHT22;11520;51.198;4.468;2023-03-24T06:42:34;11.40;99.90
22706;DHT22;11520;51.198;4.468;2023-03-24T06:45:00;11.40;99.90
22706;DHT22;11520;51.198;4.468;2023-03-24T06:47:26;11.60;99.90
22706;DHT22;11520;51.198;4.468;2023-03-24T06:49:52;11.70;99.90
22706;DHT22;11520;51.198;4.468;2023-03-24T06:52:19;11.70;99.90
22706;DHT22;11520;51.198;4.468;2023-03-24T06:54:46;11.60;99.90
22706;DHT22;11520;51.198;4.468;2023-03-24T06:57:12;11.70;99.90
22706;DHT22;11520;51.198;4.468;2023-03-24T06:59:46;11.70;99.90
22706;DHT22;11520;51.198;4.468;2023-03-24T07:02:11;11.90;99.90
22706;DHT22;11520;51.198;4.468;2023-03-24T07:04:40;12.10;99.90
22706;DHT22;11520;51.198;4.468;2023-03-24T07:07:07;12.20;99.90
22706;DHT22;11520;51.198;4.468;2023-03-24T07:09:34;12.30;99.90
22706;DHT22;11520;51.198;4.468;2023-03-24T07:12:01;12.40;99.90
22706;DHT22;11520;51.198;4.468;2023-03-24T07:14:31;12.60;99.90
22706;DHT22;11520;51.198;4.468;2023-03-24T07:16:57;12.60;99.90
22706;DHT22;11520;51.198;4.468;2023-03-24T07:19:24;12.70;99.90
22706;DHT22;11520;51.198;4.468;2023-03-24T07:21:50;12.70;99.90
22706;DHT22;11520;51.198;4.468;2023-03-24T07:24:16;12.70;99.90
22706;DHT22;11520;51.198;4.468;2023-03-24T07:26:43;13.00;99.90
22706;DHT22;11520;51.198;4.468;2023-03-24T07:29:10;13.50;99.90
22706;DHT22;11520;51.198;4.468;2023-03-24T07:31:39;14.40;99.90
22706;DHT22;11520;51.198;4.468;2023-03-24T07:34:06;15.00;99.90
22706;DHT22;11520;51.198;4.468;2023-03-24T07:36:33;16.00;99.90
22706;DHT22;11520;51.198;4.468;2023-03-24T07:38:58;16.30;99.90
22706;DHT22;11520;51.198;4.468;2023-03-24T07:41:25;16.10;99.90
22706;DHT22;11520;51.198;4.468;2023-03-24T07:43:52;15.50;99.90
22706;DHT22;11520;51.198;4.468;2023-03-24T07:46:17;15.00;99.90
22706;DHT22;11520;51.198;4.468;2023-03-24T07:48:44;14.60;99.90
22706;DHT22;11520;51.198;4.468;2023-03-24T07:51:11;14.00;99.90
22706;DHT22;11520;51.198;4.468;2023-03-24T07:53:36;13.80;99.90
22706;DHT22;11520;51.198;4.468;2023-03-24T07:56:02;13.60;99.90
22706;DHT22;11520;51.198;4.468;2023-03-24T07:58:29;13.50;99.90
22706;DHT22;11520;51.198;4.468;2023-03-24T08:00:56;13.40;99.90
22706;DHT22;11520;51.198;4.468;2023-03-24T08:03:22;13.40;99.90
22706;DHT22;11520;51.198;4.468;2023-03-24T08:05:51;13.30;99.90
22706;DHT22;11520;51.198;4.468;2023-03-24T08:08:17;13.20;99.90
22706;DHT22;11520;51.198;4.468;2023-03-24T08:10:43;13.20;99.90
22706;DHT22;11520;51.198;4.468;2023-03-24T08:13:11;13.20;99.90
22706;DHT22;11520;51.198;4.468;2023-03-24T08:15:40;13.20;99.90
22706;DHT22;11520;51.198;4.468;2023-03-24T08:18:05;13.00;99.90
22706;DHT22;11520;51.198;4.468;2023-03-24T08:20:31;13.00;99.90
22706;DHT22;11520;51.198;4.468;2023-03-24T08:22:58;13.00;99.90
22706;DHT22;11520;51.198;4.468;2023-03-24T08:25:25;13.00;99.90
22706;DHT22;11520;51.198;4.468;2023-03-24T08:27:53;12.90;99.90
22706;DHT22;11520;51.198;4.468;2023-03-24T08:30:22;13.10;99.90
22706;DHT22;11520;51.198;4.468;2023-03-24T08:32:51;13.60;99.90
22706;DHT22;11520;51.198;4.468;2023-03-24T08:35:25;14.70;99.90
22706;DHT22;11520;51.198;4.468;2023-03-24T08:37:51;15.70;99.90
22706;DHT22;11520;51.198;4.468;2023-03-24T08:40:20;16.50;99.90
22706;DHT22;11520;51.198;4.468;2023-03-24T08:42:53;17.10;99.90
22706;DHT22;11520;51.198;4.468;2023-03-24T08:45:21;18.70;99.90
22706;DHT22;11520;51.198;4.468;2023-03-24T08:47:49;18.80;99.90
22706;DHT22;11520;51.198;4.468;2023-03-24T08:50:17;19.20;99.90
22706;DHT22;11520;51.198;4.468;2023-03-24T08:52:43;19.20;99.90
22706;DHT22;11520;51.198;4.468;2023-03-24T08:55:13;19.50;99.90
22706;DHT22;11520;51.198;4.468;2023-03-24T08:57:40;19.20;99.90
22706;DHT22;11520;51.198;4.468;2023-03-24T09:00:06;18.40;99.90
22706;DHT22;11520;51.198;4.468;2023-03-24T09:02:46;18.10;99.90
22706;DHT22;11520;51.198;4.468;2023-03-24T09:05:13;17.30;99.90
22706;DHT22;11520;51.198;4.468;2023-03-24T09:07:40;16.50;99.90
22706;DHT22;11520;51.198;4.468;2023-03-24T09:10:08;16.10;99.90
22706;DHT22;11520;51.198;4.468;2023-03-24T09:12:36;15.70;99.90
22706;DHT22;11520;51.198;4.468;2023-03-24T09:15:04;15.70;99.90
22706;DHT22;11520;51.198;4.468;2023-03-24T09:17:32;15.50;99.90
22706;DHT22;11520;51.198;4.468;2023-03-24T09:19:58;15.30;99.90
22706;DHT22;11520;51.198;4.468;2023-03-24T09:22:24;15.00;99.90
22706;DHT22;11520;51.198;4.468;2023-03-24T09:24:51;14.80;99.90
22706;DHT22;11520;51.198;4.468;2023-03-24T09:27:17;14.80;99.90
22706;DHT22;11520;51.198;4.468;2023-03-24T09:29:43;15.20;99.90
22706;DHT22;11520;51.198;4.468;2023-03-24T09:32:09;15.40;99.90
22706;DHT22;11520;51.198;4.468;2023-03-24T09:34:36;15.40;99.90
22706;DHT22;11520;51.198;4.468;2023-03-24T09:37:04;15.10;99.90
22706;DHT22;11520;51.198;4.468;2023-03-24T09:39:30;15.00;99.90
22706;DHT22;11520;51.198;4.468;2023-03-24T09:41:55;14.90;99.90
22706;DHT22;11520;51.198;4.468;2023-03-24T09:44:26;15.20;99.90
22706;DHT22;11520;51.198;4.468;2023-03-24T09:49:27;16.30;99.90
22706;DHT22;11520;51.198;4.468;2023-03-24T09:52:05;16.10;99.90
22706;DHT22;11520;51.198;4.468;2023-03-24T09:59:47;16.00;99.90
22706;DHT22;11520;51.198;4.468;2023-03-24T10:02:15;17.10;99.90
22706;DHT22;11520;51.198;4.468;2023-03-24T10:04:41;18.10;99.90
22706;DHT22;11520;51.198;4.468;2023-03-24T10:07:21;18.90;99.90
22706;DHT22;11520;51.198;4.468;2023-03-24T10:09:55;19.20;99.90
22706;DHT22;11520;51.198;4.468;2023-03-24T10:12:36;18.80;99.90
22706;DHT22;11520;51.198;4.468;2023-03-24T10:15:09;19.50;99.90
22706;DHT22;11520;51.198;4.468;2023-03-24T10:21:16;19.90;99.90
22706;DHT22;11520;51.198;4.468;2023-03-24T10:23:53;19.50;99.90
22706;DHT22;11520;51.198;4.468;2023-03-24T10:31:51;17.00;99.90
22706;DHT22;11520;51.198;4.468;2023-03-24T10:34:19;16.40;99.90
22706;DHT22;11520;51.198;4.468;2023-03-24T10:36:46;16.00;99.90
22706;DHT22;11520;51.198;4.468;2023-03-24T10:39:15;15.60;99.90
22706;DHT22;11520;51.198;4.468;2023-03-24T10:41:42;15.30;99.90
22706;DHT22;11520;51.198;4.468;2023-03-24T10:44:09;15.20;99.90
22706;DHT22;11520;51.198;4.468;2023-03-24T10:46:39;15.10;99.90
22706;DHT22;11520;51.198;4.468;2023-03-24T10:51:46;14.90;99.90
22706;DHT22;11520;51.198;4.468;2023-03-24T10:54:24;14.70;99.90
22706;DHT22;11520;51.198;4.468;2023-03-24T10:59:30;13.80;99.90
22706;DHT22;11520;51.198;4.468;2023-03-24T11:04:27;12.90;99.90
22706;DHT22;11520;51.198;4.468;2023-03-24T11:07:18;12.80;99.90
22706;DHT22;11520;51.198;4.468;2023-03-24T11:09:55;12.70;99.90
22706;DHT22;11520;51.198;4.468;2023-03-24T11:12:28;12.70;99.90
22706;DHT22;11520;51.198;4.468;2023-03-24T11:17:37;12.90;99.90
22706;DHT22;11520;51.198;4.468;2023-03-24T11:20:18;13.80;99.90
22706;DHT22;11520;51.198;4.468;2023-03-24T11:25:29;15.20;99.90
22706;DHT22;11520;51.198;4.468;2023-03-24T11:27:59;15.20;99.90
22706;DHT22;11520;51.198;4.468;2023-03-24T11:30:44;15.10;99.90
22706;DHT22;11520;51.198;4.468;2023-03-24T11:33:32;14.60;99.90
22706;DHT22;11520;51.198;4.468;2023-03-24T11:44:30;13.00;99.90
22706;DHT22;11520;51.198;4.468;2023-03-24T11:46:58;12.90;99.90
22706;DHT22;11520;51.198;4.468;2023-03-24T11:49:31;12.90;99.90
22706;DHT22;11520;51.198;4.468;2023-03-24T11:51:58;13.30;99.90
22706;DHT22;11520;51.198;4.468;2023-03-24T11:54:32;14.00;99.90
22706;DHT22;11520;51.198;4.468;2023-03-24T11:57:07;15.10;99.90
22706;DHT22;11520;51.198;4.468;2023-03-24T12:08:38;16.50;99.90
22706;DHT22;11520;51.198;4.468;2023-03-24T12:11:10;16.30;99.90
22706;DHT22;11520;51.198;4.468;2023-03-24T12:13:44;16.10;99.90
22706;DHT22;11520;51.198;4.468;2023-03-24T12:30:34;17.10;99.90
22706;DHT22;11520;51.198;4.468;2023-03-24T12:55:07;16.70;99.90
22706;DHT22;11520;51.198;4.468;2023-03-24T12:57:51;16.70;99.90
22706;DHT22;11520;51.198;4.468;2023-03-24T13:03:03;16.90;99.90
22706;DHT22;11520;51.198;4.468;2023-03-24T13:05:32;16.90;99.90
22706;DHT22;11520;51.198;4.468;2023-03-24T13:08:03;16.70;99.90
22706;DHT22;11520;51.198;4.468;2023-03-24T13:10:35;16.60;99.90
22706;DHT22;11520;51.198;4.468;2023-03-24T13:13:22;16.40;99.90
22706;DHT22;11520;51.198;4.468;2023-03-24T13:18:39;15.70;99.90
22706;DHT22;11520;51.198;4.468;2023-03-24T13:34:48;16.00;99.90
22706;DHT22;11520;51.198;4.468;2023-03-24T13:37:25;15.80;99.90
22706;DHT22;11520;51.198;4.468;2023-03-24T13:39:59;15.30;99.90
22706;DHT22;11520;51.198;4.468;2023-03-24T13:42:52;15.20;99.90
22706;DHT22;11520;51.198;4.468;2023-03-24T13:50:49;15.30;99.90
22706;DHT22;11520;51.198;4.468;2023-03-24T13:53:17;15.30;99.90
22706;DHT22;11520;51.198;4.468;2023-03-24T13:55:49;15.20;99.90
22706;DHT22;11520;51.198;4.468;2023-03-24T13:58:26;15.00;99.90
22706;DHT22;11520;51.198;4.468;2023-03-24T14:03:44;14.80;99.90
22706;DHT22;11520;51.198;4.468;2023-03-24T14:06:15;14.80;99.90
22706;DHT22;11520;51.198;4.468;2023-03-24T14:19:37;15.50;99.90
22706;DHT22;11520;51.198;4.468;2023-03-24T14:22:24;15.70;99.90
22706;DHT22;11520;51.198;4.468;2023-03-24T14:25:04;15.80;99.90
22706;DHT22;11520;51.198;4.468;2023-03-24T14:27:34;15.70;99.90
22706;DHT22;11520;51.198;4.468;2023-03-24T14:32:50;15.60;99.90
22706;DHT22;11520;51.198;4.468;2023-03-24T14:35:29;15.70;99.90
22706;DHT22;11520;51.198;4.468;2023-03-24T14:38:02;15.90;99.90
22706;DHT22;11520;51.198;4.468;2023-03-24T14:40:35;15.90;99.90
22706;DHT22;11520;51.198;4.468;2023-03-24T14:43:15;15.80;99.90
22706;DHT22;11520;51.198;4.468;2023-03-24T14:45:56;15.40;99.90
22706;DHT22;11520;51.198;4.468;2023-03-24T14:48:32;15.10;99.90
22706;DHT22;11520;51.198;4.468;2023-03-24T14:53:39;15.00;99.90
22706;DHT22;11520;51.198;4.468;2023-03-24T14:56:07;15.10;99.90
22706;DHT22;11520;51.198;4.468;2023-03-24T14:58:38;15.10;99.90
22706;DHT22;11520;51.198;4.468;2023-03-24T15:01:08;15.10;99.90
22706;DHT22;11520;51.198;4.468;2023-03-24T15:08:44;14.90;99.90
22706;DHT22;11520;51.198;4.468;2023-03-24T15:11:14;14.90;99.90
22706;DHT22;11520;51.198;4.468;2023-03-24T15:13:51;14.90;99.90
22706;DHT22;11520;51.198;4.468;2023-03-24T15:16:24;14.90;99.90
22706;DHT22;11520;51.198;4.468;2023-03-24T15:18:53;14.70;99.90
22706;DHT22;11520;51.198;4.468;2023-03-24T15:24:01;14.40;99.90
22706;DHT22;11520;51.198;4.468;2023-03-24T15:26:29;14.40;99.90
22706;DHT22;11520;51.198;4.468;2023-03-24T15:29:05;14.60;99.90
22706;DHT22;11520;51.198;4.468;2023-03-24T15:31:31;14.60;99.90
22706;DHT22;11520;51.198;4.468;2023-03-24T15:34:21;14.70;99.90
22706;DHT22;11520;51.198;4.468;2023-03-24T15:36:53;14.90;99.90
22706;DHT22;11520;51.198;4.468;2023-03-24T15:39:21;15.10;99.90
22706;DHT22;11520;51.198;4.468;2023-03-24T15:41:50;15.10;99.90
22706;DHT22;11520;51.198;4.468;2023-03-24T15:44:19;15.20;99.90
22706;DHT22;11520;51.198;4.468;2023-03-24T15:46:46;15.20;99.90
22706;DHT22;11520;51.198;4.468;2023-03-24T15:49:50;15.30;99.90
22706;DHT22;11520;51.198;4.468;2023-03-24T15:52:35;15.40;99.90
22706;DHT22;11520;51.198;4.468;2023-03-24T15:55:34;15.50;99.90
22706;DHT22;11520;51.198;4.468;2023-03-24T16:00:46;15.50;99.90
22706;DHT22;11520;51.198;4.468;2023-03-24T16:03:13;15.30;99.90
22706;DHT22;11520;51.198;4.468;2023-03-24T16:05:48;15.30;99.90
22706;DHT22;11520;51.198;4.468;2023-03-24T16:08:33;15.20;99.90
22706;DHT22;11520;51.198;4.468;2023-03-24T16:11:14;15.00;99.90
22706;DHT22;11520;51.198;4.468;2023-03-24T16:13:42;14.90;99.90
22706;DHT22;11520;51.198;4.468;2023-03-24T16:18:40;14.80;99.90
22706;DHT22;11520;51.198;4.468;2023-03-24T16:21:25;14.80;99.90
22706;DHT22;11520;51.198;4.468;2023-03-24T16:23:53;14.90;99.90
22706;DHT22;11520;51.198;4.468;2023-03-24T16:26:25;15.00;99.90
22706;DHT22;11520;51.198;4.468;2023-03-24T16:28:53;15.00;99.90
22706;DHT22;11520;51.198;4.468;2023-03-24T16:31:37;14.90;99.90
22706;DHT22;11520;51.198;4.468;2023-03-24T16:34:02;14.90;99.90
22706;DHT22;11520;51.198;4.468;2023-03-24T16:36:28;14.90;99.90
22706;DHT22;11520;51.198;4.468;2023-03-24T16:38:56;14.80;99.90
22706;DHT22;11520;51.198;4.468;2023-03-24T16:41:23;14.70;99.90
22706;DHT22;11520;51.198;4.468;2023-03-24T16:43:49;14.50;99.90
22706;DHT22;11520;51.198;4.468;2023-03-24T16:48:51;14.50;99.90
22706;DHT22;11520;51.198;4.468;2023-03-24T16:51:17;14.40;99.90
22706;DHT22;11520;51.198;4.468;2023-03-24T16:53:44;14.40;99.90
22706;DHT22;11520;51.198;4.468;2023-03-24T16:56:16;14.40;99.90
22706;DHT22;11520;51.198;4.468;2023-03-24T16:58:42;14.20;99.90
22706;DHT22;11520;51.198;4.468;2023-03-24T17:01:39;14.10;99.90
22706;DHT22;11520;51.198;4.468;2023-03-24T17:04:11;14.00;99.90
22706;DHT22;11520;51.198;4.468;2023-03-24T17:06:40;13.80;99.90
22706;DHT22;11520;51.198;4.468;2023-03-24T17:09:07;13.60;99.90
22706;DHT22;11520;51.198;4.468;2023-03-24T17:11:38;13.50;99.90
22706;DHT22;11520;51.198;4.468;2023-03-24T17:14:05;13.40;99.90
22706;DHT22;11520;51.198;4.468;2023-03-24T17:16:34;13.50;99.90
22706;DHT22;11520;51.198;4.468;2023-03-24T17:19:05;13.30;99.90
22706;DHT22;11520;51.198;4.468;2023-03-24T17:21:37;13.30;99.90
22706;DHT22;11520;51.198;4.468;2023-03-24T17:24:03;13.30;99.90
22706;DHT22;11520;51.198;4.468;2023-03-24T17:26:32;13.20;99.90
22706;DHT22;11520;51.198;4.468;2023-03-24T17:29:01;13.20;99.90
22706;DHT22;11520;51.198;4.468;2023-03-24T17:31:27;13.10;99.90
22706;DHT22;11520;51.198;4.468;2023-03-24T17:33:53;13.10;99.90
22706;DHT22;11520;51.198;4.468;2023-03-24T17:36:19;13.10;99.90
22706;DHT22;11520;51.198;4.468;2023-03-24T17:38:45;13.00;99.90
22706;DHT22;11520;51.198;4.468;2023-03-24T17:41:13;12.90;99.90
22706;DHT22;11520;51.198;4.468;2023-03-24T17:43:39;12.80;99.90
22706;DHT22;11520;51.198;4.468;2023-03-24T17:46:05;12.80;99.90
22706;DHT22;11520;51.198;4.468;2023-03-24T17:48:31;12.70;99.90
22706;DHT22;11520;51.198;4.468;2023-03-24T17:50:56;12.70;99.90
22706;DHT22;11520;51.198;4.468;2023-03-24T17:53:25;12.70;99.90
22706;DHT22;11520;51.198;4.468;2023-03-24T17:55:55;12.60;99.90
22706;DHT22;11520;51.198;4.468;2023-03-24T17:58:23;12.60;99.90
22706;DHT22;11520;51.198;4.468;2023-03-24T18:00:49;12.50;99.90
22706;DHT22;11520;51.198;4.468;2023-03-24T18:03:15;12.50;99.90
22706;DHT22;11520;51.198;4.468;2023-03-24T18:05:41;12.40;99.90
22706;DHT22;11520;51.198;4.468;2023-03-24T18:08:07;12.30;99.90
22706;DHT22;11520;51.198;4.468;2023-03-24T18:10:38;12.20;99.90
22706;DHT22;11520;51.198;4.468;2023-03-24T18:13:05;12.20;99.90
22706;DHT22;11520;51.198;4.468;2023-03-24T18:15:32;12.10;99.90
22706;DHT22;11520;51.198;4.468;2023-03-24T18:17:59;12.00;99.90
22706;DHT22;11520;51.198;4.468;2023-03-24T18:20:26;11.90;99.90
22706;DHT22;11520;51.198;4.468;2023-03-24T18:22:52;11.80;99.90
22706;DHT22;11520;51.198;4.468;2023-03-24T18:25:18;11.80;99.90
22706;DHT22;11520;51.198;4.468;2023-03-24T18:27:43;11.70;99.90
22706;DHT22;11520;51.198;4.468;2023-03-24T18:30:11;11.60;99.90
22706;DHT22;11520;51.198;4.468;2023-03-24T18:32:37;11.50;99.90
22706;DHT22;11520;51.198;4.468;2023-03-24T18:35:08;11.50;99.90
22706;DHT22;11520;51.198;4.468;2023-03-24T18:37:35;11.50;99.90
22706;DHT22;11520;51.198;4.468;2023-03-24T18:40:02;11.50;99.90
22706;DHT22;11520;51.198;4.468;2023-03-24T18:42:33;11.40;99.90
22706;DHT22;11520;51.198;4.468;2023-03-24T18:44:59;11.40;99.90
22706;DHT22;11520;51.198;4.468;2023-03-24T18:47:24;11.30;99.90
22706;DHT22;11520;51.198;4.468;2023-03-24T18:49:51;11.30;99.90
22706;DHT22;11520;51.198;4.468;2023-03-24T18:52:17;11.20;99.90
22706;DHT22;11520;51.198;4.468;2023-03-24T18:54:44;11.20;99.90
22706;DHT22;11520;51.198;4.468;2023-03-24T18:57:10;11.20;99.90
22706;DHT22;11520;51.198;4.468;2023-03-24T18:59:36;11.10;99.90
22706;DHT22;11520;51.198;4.468;2023-03-24T19:02:03;11.10;99.90
22706;DHT22;11520;51.198;4.468;2023-03-24T19:04:28;11.00;99.90
22706;DHT22;11520;51.198;4.468;2023-03-24T19:06:54;11.00;99.90
22706;DHT22;11520;51.198;4.468;2023-03-24T19:09:21;11.00;99.90
22706;DHT22;11520;51.198;4.468;2023-03-24T19:11:48;10.90;99.90